Leland, IL (60531)

1:12 AM CDT on October 31, 2014 (GMT -0500)
Weather at Chuck and Pats House | Change Station
CLOSE
Current Station
Personal Weather Station
Location: Serena, IL
Elevation: 633 ft
Nearby Weather Stations

Elev 633 ft 41.51 °N, 88.74 °W | Updated 11 seconds ago

Overcast
Overcast
45.5 °F
Feels Like 43 °F
N
4.4
Wind Variable Wind from WNW
Gusts 5.8 mph

Today
High -- | Low -- °F
--% Chance of Precip.
Yesterday
High -- | Low -- °F
Precip. -- in
7:25 AM 5:51 PM
First Quarter, 52% visible
Pressure 30.06 in
Visibility 9.0 miles
Clouds Overcast 4100 ft
Windchill 43 °F
Dew Point 40 °F
Humidity 82%
Rainfall 0.00 in
Snow Depth Not available.
UV 0 out of 12
Pollen .10 out of 12
Air Quality Not available.
Flu Activity Not available.
METAR KARR 310552Z AUTO 29006KT 9SM OVC041 07/03 A3005 RMK AO2 SLP177 T00720028 10089 20050 401061039 58007

More Conditions Fewer Conditions

Pressure 30.06 in
Visibility 9.0 miles
Clouds Overcast 4100 ft
Windchill 43 °F
Dew Point 40 °F
Humidity 82%
Rainfall 0.00 in
Snow Depth Not available.
UV 0 out of 12
Pollen .10 out of 12
Air Quality Not available.
Flu Activity Not available.
METAR KARR 310552Z AUTO 29006KT 9SM OVC041 07/03 A3005 RMK AO2 SLP177 T00720028 10089 20050 401061039 58007

More Conditions Fewer Conditions

10-Day Weather Forecast

Almanac

Astronomy

Oct. 31, 2014 Rise Set
Actual Time
Civil Twilight
Nautical Twilight
Astronomical Twilight
Moon
Length of Visible Light
Length of Day
Tomorrow will be .
, % of the Moon is Illuminated

Today's Extremes

State Highs State Lows

Community

WunderPhotos

Upload Photos

1,766,571 photos uploaded!

WunderBlogs® & News

Nearby

Air Quality

  Air Quality AQ Index Pollutant
Not available.

Snow Depth

Station Depth Elevation

Earthquake Activity

City Distance Mag. Time & Date
Minimum magnitude displayed is 2.5.

Coastal Water Temperatures

Place Temperature

Nearby Weather Stations